createdAt,value
2022-09-24T00:01:25.790Z,17.50
2022-09-24T00:03:57.651Z,17.50
2022-09-24T00:06:25.238Z,17.40
2022-09-24T00:08:55.224Z,17.40
2022-09-24T00:11:24.140Z,17.40
2022-09-24T00:13:53.117Z,17.50
2022-09-24T00:16:22.529Z,17.50
2022-09-24T00:18:50.174Z,17.50
2022-09-24T00:21:21.337Z,17.40
2022-09-24T00:23:49.723Z,17.40
2022-09-24T00:26:36.179Z,17.40
2022-09-24T00:29:04.475Z,17.50
2022-09-24T00:31:32.028Z,17.40
2022-09-24T00:34:01.091Z,17.50
2022-09-24T00:36:28.962Z,17.40
2022-09-24T00:38:57.551Z,17.30
2022-09-24T00:41:26.877Z,17.30
2022-09-24T00:43:54.391Z,17.30
2022-09-24T00:46:48.116Z,17.20
2022-09-24T00:49:18.404Z,17.10
2022-09-24T00:51:47.546Z,17.10
2022-09-24T00:54:17.223Z,17.30
2022-09-24T00:56:45.170Z,17.20
2022-09-24T00:59:17.482Z,17.20
2022-09-24T01:01:46.077Z,17.30
2022-09-24T01:04:14.227Z,17.20
2022-09-24T01:06:41.890Z,17.20
2022-09-24T01:09:09.568Z,17.40
2022-09-24T01:11:45.941Z,17.30
2022-09-24T01:14:20.025Z,17.40
2022-09-24T01:16:47.610Z,17.40
2022-09-24T01:19:28.141Z,17.40
2022-09-24T01:21:57.960Z,17.40
2022-09-24T01:24:43.929Z,17.40
2022-09-24T01:27:17.440Z,17.40
2022-09-24T01:29:48.201Z,17.40
2022-09-24T01:32:35.705Z,17.30
2022-09-24T01:35:18.526Z,17.40
2022-09-24T01:37:48.920Z,17.20
2022-09-24T01:40:18.385Z,17.20
2022-09-24T01:42:46.344Z,17.20
2022-09-24T01:45:14.493Z,17.20
2022-09-24T01:47:42.262Z,17.20
2022-09-24T01:50:11.408Z,17.20
2022-09-24T01:52:42.352Z,17.30
2022-09-24T01:55:12.213Z,17.20
2022-09-24T01:57:42.513Z,17.20
2022-09-24T02:00:15.238Z,17.30
2022-09-24T02:02:50.296Z,17.30
2022-09-24T02:05:34.676Z,17.30
2022-09-24T02:08:06.152Z,17.20
2022-09-24T02:10:38.289Z,17.10
2022-09-24T02:13:07.813Z,17.20
2022-09-24T02:15:37.560Z,17.20
2022-09-24T02:18:08.143Z,17.10
2022-09-24T02:20:36.391Z,17.10
2022-09-24T02:23:05.014Z,17.10
2022-09-24T02:25:39.522Z,17.10
2022-09-24T02:28:06.935Z,17.30
2022-09-24T02:30:38.106Z,17.20
2022-09-24T02:33:28.299Z,17.20
2022-09-24T02:35:55.860Z,17.10
2022-09-24T02:38:23.775Z,17.10
2022-09-24T02:40:51.450Z,17.00
2022-09-24T02:43:19.019Z,17.20
2022-09-24T02:45:46.758Z,17.30
2022-09-24T02:48:14.113Z,17.20
2022-09-24T02:50:41.588Z,17.00
2022-09-24T02:53:09.000Z,16.80
2022-09-24T02:55:36.806Z,16.80
2022-09-24T02:58:04.300Z,16.80
2022-09-24T03:00:31.753Z,16.90
2022-09-24T03:02:59.369Z,16.90
2022-09-24T03:05:27.005Z,16.90
2022-09-24T03:07:55.255Z,16.90
2022-09-24T03:10:22.623Z,16.80
2022-09-24T03:12:50.043Z,16.90
2022-09-24T03:15:17.619Z,16.90
2022-09-24T03:17:45.417Z,17.00
2022-09-24T03:20:12.770Z,17.00
2022-09-24T03:22:40.274Z,17.00
2022-09-24T03:25:07.896Z,16.90
2022-09-24T03:27:35.296Z,16.90
2022-09-24T03:30:21.625Z,16.90
2022-09-24T03:32:49.035Z,16.90
2022-09-24T03:35:16.658Z,16.90
2022-09-24T03:37:48.949Z,16.80
2022-09-24T03:40:16.874Z,16.70
2022-09-24T03:42:44.399Z,16.70
2022-09-24T03:45:11.882Z,16.80
2022-09-24T03:47:39.869Z,16.80
2022-09-24T03:50:10.083Z,16.80
2022-09-24T03:52:40.606Z,16.70
2022-09-24T03:55:08.308Z,16.60
2022-09-24T03:57:35.713Z,16.60
2022-09-24T04:00:03.965Z,16.50
2022-09-24T04:02:33.769Z,16.60
2022-09-24T04:05:02.087Z,16.60
2022-09-24T04:07:29.483Z,16.50
2022-09-24T04:09:56.858Z,16.60
2022-09-24T04:12:24.647Z,16.60
2022-09-24T04:14:51.977Z,16.60
2022-09-24T04:17:19.413Z,16.50
2022-09-24T04:19:46.965Z,16.50
2022-09-24T04:22:14.559Z,16.50
2022-09-24T04:24:41.969Z,16.50
2022-09-24T04:27:09.435Z,16.50
2022-09-24T04:29:36.906Z,16.30
2022-09-24T04:32:04.729Z,16.30
2022-09-24T04:34:33.461Z,16.30
2022-09-24T04:37:00.845Z,16.30
2022-09-24T04:39:28.297Z,16.40
2022-09-24T04:41:55.794Z,16.20
2022-09-24T04:44:23.771Z,16.10
2022-09-24T04:46:51.311Z,16.10
2022-09-24T04:49:18.800Z,16.10
2022-09-24T04:51:46.338Z,16.00
2022-09-24T04:54:13.917Z,16.00
2022-09-24T04:56:41.389Z,16.00
2022-09-24T04:59:08.916Z,15.90
2022-09-24T05:01:36.768Z,15.70
2022-09-24T05:04:04.327Z,15.90
2022-09-24T05:06:31.757Z,15.90
2022-09-24T05:08:59.333Z,15.90
2022-09-24T05:11:26.983Z,15.80
2022-09-24T05:13:54.460Z,15.70
2022-09-24T05:16:22.701Z,15.80
2022-09-24T05:18:50.381Z,15.70
2022-09-24T05:21:17.982Z,15.80
2022-09-24T05:23:45.393Z,15.70
2022-09-24T05:26:31.448Z,15.70
2022-09-24T05:28:58.969Z,15.60
2022-09-24T05:31:26.606Z,15.70
2022-09-24T05:33:54.567Z,15.80
2022-09-24T05:36:23.059Z,16.00
2022-09-24T05:38:50.475Z,16.00
2022-09-24T05:41:17.891Z,15.90
2022-09-24T05:43:45.563Z,15.70
2022-09-24T05:46:13.117Z,15.70
2022-09-24T05:48:40.704Z,15.90
2022-09-24T05:51:08.230Z,15.80
2022-09-24T05:53:35.690Z,15.90
2022-09-24T05:56:03.207Z,16.00
2022-09-24T05:58:31.169Z,16.00
2022-09-24T06:01:02.219Z,16.00
2022-09-24T06:03:30.052Z,16.00
2022-09-24T06:06:02.213Z,16.20
2022-09-24T06:08:30.794Z,16.20
2022-09-24T06:11:02.796Z,16.30
2022-09-24T06:13:31.682Z,16.50
2022-09-24T06:16:09.647Z,16.60
2022-09-24T06:18:40.172Z,16.80
2022-09-24T06:21:08.859Z,16.80
2022-09-24T06:23:38.301Z,16.90
2022-09-24T06:26:07.841Z,17.00
2022-09-24T06:28:35.413Z,17.00
2022-09-24T06:31:02.883Z,17.10
2022-09-24T06:33:30.769Z,17.20
2022-09-24T06:36:01.662Z,17.30
2022-09-24T06:38:29.675Z,17.20
2022-09-24T06:41:01.572Z,17.30
2022-09-24T06:43:29.475Z,17.30
2022-09-24T06:45:57.586Z,17.30
2022-09-24T06:48:26.617Z,17.40
2022-09-24T06:50:55.040Z,17.50
2022-09-24T06:53:22.928Z,17.40
2022-09-24T06:55:50.497Z,17.50
2022-09-24T06:58:20.223Z,17.50
2022-09-24T07:00:54.821Z,17.70
2022-09-24T07:03:22.588Z,17.70
2022-09-24T07:05:50.016Z,18.00
2022-09-24T07:08:17.877Z,17.90
2022-09-24T07:10:46.167Z,17.90
2022-09-24T07:13:13.881Z,18.10
2022-09-24T07:15:42.238Z,18.20
2022-09-24T07:18:10.004Z,18.30
2022-09-24T07:20:37.520Z,18.40
2022-09-24T07:23:05.684Z,18.50
2022-09-24T07:25:33.381Z,18.70
2022-09-24T07:28:04.928Z,18.70
2022-09-24T07:30:33.450Z,18.80
2022-09-24T07:33:00.905Z,18.80
2022-09-24T07:35:28.915Z,18.80
2022-09-24T07:37:57.385Z,18.80
2022-09-24T07:40:24.960Z,18.90
2022-09-24T07:42:52.667Z,18.90
2022-09-24T07:45:20.152Z,19.00
2022-09-24T07:47:47.587Z,19.10
2022-09-24T07:50:14.990Z,19.20
2022-09-24T07:52:42.369Z,19.40
2022-09-24T07:55:09.919Z,19.60
2022-09-24T07:57:37.376Z,19.70
2022-09-24T08:00:04.971Z,19.70
2022-09-24T08:02:38.922Z,19.80
2022-09-24T08:05:06.991Z,19.70
2022-09-24T08:07:34.425Z,19.70
2022-09-24T08:10:02.038Z,19.60
2022-09-24T08:12:29.831Z,19.60
2022-09-24T08:18:02.686Z,19.60
2022-09-24T08:20:30.722Z,19.60
2022-09-24T08:23:02.450Z,19.60
2022-09-24T08:25:30.642Z,19.60
2022-09-24T08:28:01.770Z,19.70
2022-09-24T08:30:31.123Z,19.80
2022-09-24T08:32:58.534Z,19.70
2022-09-24T08:35:25.994Z,19.70
2022-09-24T08:37:54.057Z,19.70
2022-09-24T08:40:26.283Z,19.70
2022-09-24T08:42:53.774Z,19.80
2022-09-24T08:45:39.953Z,19.80
2022-09-24T08:48:21.894Z,19.80
2022-09-24T08:50:53.014Z,19.80
2022-09-24T08:53:23.955Z,19.80
2022-09-24T08:55:55.849Z,20.00
2022-09-24T08:58:29.951Z,20.00
2022-09-24T09:01:12.628Z,20.00
2022-09-24T09:03:49.510Z,20.00
2022-09-24T09:06:56.093Z,20.00
2022-09-24T09:09:24.221Z,20.20
2022-09-24T09:11:53.274Z,20.20
2022-09-24T09:14:31.179Z,20.20
2022-09-24T09:17:03.753Z,20.10
2022-09-24T09:19:34.079Z,20.00
2022-09-24T09:22:05.409Z,19.90
2022-09-24T09:24:44.997Z,19.90
2022-09-24T09:27:14.971Z,19.90
2022-09-24T09:29:44.971Z,19.80
2022-09-24T09:32:23.015Z,19.70
2022-09-24T09:35:05.915Z,19.60
2022-09-24T09:37:51.997Z,19.60
2022-09-24T09:40:58.141Z,19.50
2022-09-24T09:43:26.564Z,19.40
2022-09-24T09:46:03.547Z,19.40
2022-09-24T09:48:54.743Z,19.40
2022-09-24T09:51:26.020Z,19.40
2022-09-24T09:53:56.561Z,19.60
2022-09-24T09:56:35.159Z,19.50
2022-09-24T09:59:11.725Z,19.50
2022-09-24T10:01:44.008Z,19.50
2022-09-24T10:04:20.926Z,19.40
2022-09-24T10:06:48.436Z,19.40
2022-09-24T10:09:17.268Z,19.40
2022-09-24T10:11:44.807Z,19.40
2022-09-24T10:14:13.542Z,19.40
2022-09-24T10:16:45.633Z,19.50
2022-09-24T10:19:22.180Z,19.50
2022-09-24T10:21:50.238Z,19.50
2022-09-24T10:24:20.471Z,19.60
2022-09-24T10:26:48.480Z,19.60
2022-09-24T10:29:40.217Z,19.60
2022-09-24T10:32:14.967Z,19.70
2022-09-24T10:34:42.515Z,19.70
2022-09-24T10:37:15.423Z,19.70
2022-09-24T10:39:42.963Z,19.80
2022-09-24T10:42:23.441Z,19.90
2022-09-24T10:44:52.963Z,20.10
2022-09-24T10:47:29.474Z,20.10
2022-09-24T10:50:06.266Z,20.10
2022-09-24T10:52:52.174Z,20.20
2022-09-24T10:55:47.442Z,20.20
2022-09-24T10:58:35.086Z,20.20
2022-09-24T11:01:16.145Z,20.30
2022-09-24T11:04:02.431Z,20.40
2022-09-24T11:06:42.969Z,20.50
2022-09-24T11:09:22.729Z,20.60
2022-09-24T11:12:01.415Z,20.60
2022-09-24T11:14:32.462Z,20.60
2022-09-24T11:17:21.430Z,20.60
2022-09-24T11:20:07.963Z,20.70
2022-09-24T11:22:47.153Z,20.70
2022-09-24T11:25:34.453Z,20.80
2022-09-24T11:28:14.301Z,20.80
2022-09-24T11:30:47.969Z,20.70
2022-09-24T11:33:35.019Z,20.60
2022-09-24T11:36:08.464Z,20.60
2022-09-24T11:38:54.685Z,20.50
2022-09-24T11:41:35.304Z,20.40
2022-09-24T11:44:11.428Z,20.40
2022-09-24T11:46:59.388Z,20.40
2022-09-24T11:49:35.762Z,20.30
2022-09-24T11:52:13.503Z,20.30
2022-09-24T11:54:47.508Z,20.30
2022-09-24T11:57:21.150Z,20.30
2022-09-24T12:00:01.609Z,20.40
2022-09-24T12:02:38.078Z,20.30
2022-09-24T12:05:08.719Z,20.30
2022-09-24T12:07:36.125Z,20.30
2022-09-24T12:10:07.861Z,20.20
2022-09-24T12:12:38.064Z,20.10
2022-09-24T12:15:07.182Z,20.00
2022-09-24T12:17:38.732Z,19.90
2022-09-24T12:20:20.603Z,19.90
2022-09-24T12:23:00.356Z,20.00
2022-09-24T12:25:29.999Z,20.10
2022-09-24T12:27:58.721Z,20.10
2022-09-24T12:30:58.005Z,20.00
2022-09-24T12:33:38.703Z,20.10
2022-09-24T12:36:17.871Z,20.10
2022-09-24T12:38:51.609Z,20.20
2022-09-24T12:41:19.120Z,20.20
2022-09-24T12:43:46.550Z,20.00
2022-09-24T12:46:21.847Z,20.10
2022-09-24T12:48:50.001Z,20.20
2022-09-24T12:51:22.314Z,20.20
2022-09-24T12:54:06.944Z,20.20
2022-09-24T12:56:35.050Z,20.10
2022-09-24T12:59:05.712Z,20.10
2022-09-24T13:01:34.614Z,20.10
2022-09-24T13:04:05.806Z,20.10
2022-09-24T13:06:35.256Z,20.10
2022-09-24T13:09:03.965Z,20.00
2022-09-24T13:11:37.601Z,20.10
2022-09-24T13:14:05.070Z,20.10
2022-09-24T13:16:38.828Z,20.10
2022-09-24T13:19:17.664Z,20.20
2022-09-24T13:21:52.997Z,20.20
2022-09-24T13:24:26.905Z,20.20
2022-09-24T13:26:54.363Z,20.30
2022-09-24T13:29:23.772Z,20.20
2022-09-24T13:31:55.272Z,20.20
2022-09-24T13:34:29.866Z,20.20
2022-09-24T13:37:16.301Z,20.20
2022-09-24T13:39:53.127Z,20.20
2022-09-24T13:42:42.814Z,20.20
2022-09-24T13:45:14.120Z,20.20
2022-09-24T13:47:44.608Z,20.20
2022-09-24T13:50:20.478Z,20.10
2022-09-24T13:52:51.134Z,20.10
2022-09-24T13:55:18.587Z,20.20
2022-09-24T13:57:46.785Z,20.20
2022-09-24T14:00:16.471Z,20.20
2022-09-24T14:02:45.262Z,20.20
2022-09-24T14:05:16.936Z,20.10
2022-09-24T14:08:15.496Z,20.20
2022-09-24T14:10:43.459Z,20.10
2022-09-24T14:13:21.912Z,20.10
2022-09-24T14:15:50.847Z,20.00
2022-09-24T14:18:18.592Z,19.90
2022-09-24T14:20:50.028Z,19.90
2022-09-24T14:23:19.576Z,19.90
2022-09-24T14:25:48.820Z,19.90
2022-09-24T14:28:16.852Z,20.00
2022-09-24T14:30:49.860Z,19.90
2022-09-24T14:33:19.758Z,20.00
2022-09-24T14:35:48.436Z,20.00
2022-09-24T14:38:21.430Z,20.00
2022-09-24T14:40:51.808Z,20.00
2022-09-24T14:43:39.632Z,19.90
2022-09-24T14:46:19.212Z,20.00
2022-09-24T14:48:46.726Z,20.00
2022-09-24T14:51:27.950Z,19.90
2022-09-24T14:53:59.790Z,19.90
2022-09-24T14:56:29.104Z,19.80
2022-09-24T14:58:56.756Z,19.80
2022-09-24T15:01:26.022Z,19.80
2022-09-24T15:03:56.087Z,19.70
2022-09-24T15:06:24.870Z,19.80
2022-09-24T15:08:58.175Z,19.60
2022-09-24T15:11:29.542Z,19.60
2022-09-24T15:14:01.244Z,19.50
2022-09-24T15:16:34.235Z,19.50
2022-09-24T15:19:13.473Z,19.50
2022-09-24T15:21:41.300Z,19.50
2022-09-24T15:24:10.098Z,19.50
2022-09-24T15:26:38.685Z,19.40
2022-09-24T15:29:07.384Z,19.30
2022-09-24T15:31:35.441Z,19.20
2022-09-24T15:34:03.044Z,19.30
2022-09-24T15:36:30.668Z,19.20
2022-09-24T15:39:01.061Z,19.00
2022-09-24T15:41:28.566Z,19.10
2022-09-24T15:43:57.027Z,19.10
2022-09-24T15:46:26.000Z,19.10
2022-09-24T15:48:53.758Z,19.10
2022-09-24T15:51:21.946Z,19.00
2022-09-24T15:53:50.586Z,19.10
2022-09-24T15:56:18.120Z,19.00
2022-09-24T15:58:45.637Z,19.00
2022-09-24T16:01:18.173Z,18.90
2022-09-24T16:03:45.672Z,19.00
2022-09-24T16:06:14.297Z,18.80
2022-09-24T16:08:42.717Z,18.80
2022-09-24T16:11:10.135Z,18.80
2022-09-24T16:13:37.658Z,18.70
2022-09-24T16:16:06.839Z,18.70
2022-09-24T16:18:34.441Z,18.70
2022-09-24T16:21:05.425Z,18.70
2022-09-24T16:23:33.141Z,18.70
2022-09-24T16:26:00.907Z,18.60
2022-09-24T16:28:28.933Z,18.60
2022-09-24T16:30:56.636Z,18.60
2022-09-24T16:33:24.514Z,18.50
2022-09-24T16:35:51.919Z,18.50
2022-09-24T16:38:22.891Z,18.50
2022-09-24T16:40:59.147Z,18.50
2022-09-24T16:43:26.649Z,18.50
2022-09-24T16:45:54.380Z,18.40
2022-09-24T16:48:21.849Z,18.40
2022-09-24T16:50:49.674Z,18.40
2022-09-24T16:53:17.114Z,18.50
2022-09-24T16:55:44.630Z,18.40
2022-09-24T16:58:12.230Z,18.40
2022-09-24T17:00:42.526Z,18.50
2022-09-24T17:03:11.133Z,18.40
2022-09-24T17:05:40.799Z,18.40
2022-09-24T17:08:08.249Z,18.40
2022-09-24T17:10:35.753Z,18.40
2022-09-24T17:13:03.163Z,18.30
2022-09-24T17:15:30.599Z,18.40
2022-09-24T17:17:59.540Z,18.40
2022-09-24T17:20:27.002Z,18.40
2022-09-24T17:22:54.442Z,18.40
2022-09-24T17:25:21.877Z,18.40
2022-09-24T17:27:49.318Z,18.30
2022-09-24T17:30:16.728Z,18.30
2022-09-24T17:32:44.558Z,18.40
2022-09-24T17:35:13.184Z,18.20
2022-09-24T17:37:40.709Z,18.30
2022-09-24T17:40:08.967Z,18.20
2022-09-24T17:42:36.886Z,18.10
2022-09-24T17:45:05.080Z,18.00
2022-09-24T17:47:54.669Z,18.20
2022-09-24T17:50:22.570Z,18.10
2022-09-24T17:52:51.121Z,17.90
2022-09-24T17:55:20.113Z,17.70
2022-09-24T17:57:47.518Z,17.50
2022-09-24T18:00:14.986Z,17.50
2022-09-24T18:02:43.315Z,17.60
2022-09-24T18:05:11.203Z,17.70
2022-09-24T18:07:39.292Z,17.80
2022-09-24T18:10:12.581Z,17.80
2022-09-24T18:12:42.598Z,17.90
2022-09-24T18:15:12.194Z,17.90
2022-09-24T18:17:41.777Z,17.80
2022-09-24T18:20:11.983Z,17.90
2022-09-24T18:22:39.983Z,17.90
2022-09-24T18:25:10.561Z,17.80
2022-09-24T18:27:38.727Z,17.70
2022-09-24T18:30:11.578Z,17.60
2022-09-24T18:32:41.891Z,17.40
2022-09-24T18:35:09.792Z,17.40
2022-09-24T18:37:38.339Z,17.40
2022-09-24T18:40:07.645Z,17.40
2022-09-24T18:42:35.088Z,17.40
2022-09-24T18:45:03.063Z,17.50
2022-09-24T18:47:32.080Z,17.40
2022-09-24T18:50:03.865Z,17.40
2022-09-24T18:52:34.488Z,17.30
2022-09-24T18:55:03.212Z,17.30
2022-09-24T18:57:32.758Z,17.30
2022-09-24T19:00:00.810Z,17.10
2022-09-24T19:02:29.593Z,17.10
2022-09-24T19:04:57.294Z,17.20
2022-09-24T19:07:27.145Z,17.20
2022-09-24T19:09:54.642Z,17.30
2022-09-24T19:12:23.224Z,17.20
2022-09-24T19:14:55.941Z,17.20
2022-09-24T19:17:24.001Z,17.20
2022-09-24T19:19:54.366Z,17.10
2022-09-24T19:22:23.533Z,17.10
2022-09-24T19:24:53.910Z,17.10
2022-09-24T19:27:24.136Z,17.00
2022-09-24T19:29:54.077Z,16.90
2022-09-24T19:32:27.308Z,17.00
2022-09-24T19:34:58.749Z,17.10
2022-09-24T19:37:26.832Z,17.00
2022-09-24T19:39:54.811Z,17.00
2022-09-24T19:42:22.255Z,16.90
2022-09-24T19:44:53.752Z,16.90
2022-09-24T19:47:21.680Z,16.90
2022-09-24T19:49:49.364Z,16.80
2022-09-24T19:52:17.502Z,16.80
2022-09-24T19:54:47.681Z,16.70
2022-09-24T19:57:16.846Z,16.70
2022-09-24T19:59:47.670Z,16.60
2022-09-24T20:02:17.595Z,16.60
2022-09-24T20:04:47.356Z,16.70
2022-09-24T20:07:17.928Z,16.70
2022-09-24T20:09:46.641Z,16.80
2022-09-24T20:12:17.174Z,16.70
2022-09-24T20:14:45.618Z,16.80
2022-09-24T20:17:15.282Z,16.80
2022-09-24T20:19:45.244Z,16.80
2022-09-24T20:22:17.400Z,16.90
2022-09-24T20:24:47.486Z,16.90
2022-09-24T20:27:35.722Z,16.90
2022-09-24T20:30:03.844Z,17.00
2022-09-24T20:32:32.112Z,17.10
2022-09-24T20:35:01.642Z,17.00
2022-09-24T20:37:30.726Z,17.00
2022-09-24T20:40:00.399Z,16.80
2022-09-24T20:42:30.245Z,16.50
2022-09-24T20:45:06.092Z,16.40
2022-09-24T20:47:35.646Z,16.20
2022-09-24T20:50:05.089Z,16.10
2022-09-24T20:52:37.979Z,16.10
2022-09-24T20:55:09.069Z,16.00
2022-09-24T20:57:41.878Z,16.00
2022-09-24T21:00:17.375Z,16.00
2022-09-24T21:02:46.285Z,16.10
2022-09-24T21:05:13.883Z,16.20
2022-09-24T21:07:42.916Z,16.30
2022-09-24T21:10:13.186Z,16.40
2022-09-24T21:12:41.474Z,16.50
2022-09-24T21:15:14.744Z,16.50
2022-09-24T21:17:59.417Z,16.50
2022-09-24T21:20:33.314Z,16.50
2022-09-24T21:23:03.182Z,16.60
2022-09-24T21:25:53.563Z,16.70
2022-09-24T21:28:23.055Z,16.70
2022-09-24T21:30:58.420Z,16.70
2022-09-24T21:33:26.286Z,16.70
2022-09-24T21:36:02.406Z,16.60
2022-09-24T21:38:30.563Z,16.70
2022-09-24T21:40:58.561Z,16.70
2022-09-24T21:43:32.373Z,16.60
2022-09-24T21:46:05.933Z,16.60
2022-09-24T21:48:34.486Z,16.50
2022-09-24T21:51:08.396Z,16.60
2022-09-24T21:53:38.103Z,16.50
2022-09-24T21:56:07.392Z,16.50
2022-09-24T21:58:34.927Z,16.40
2022-09-24T22:01:07.677Z,16.30
2022-09-24T22:03:36.989Z,16.30
2022-09-24T22:06:06.351Z,16.40
2022-09-24T22:08:34.494Z,16.50
2022-09-24T22:11:04.933Z,16.50
2022-09-24T22:13:38.566Z,16.50
2022-09-24T22:16:08.792Z,16.50
2022-09-24T22:18:36.963Z,16.60
2022-09-24T22:21:13.719Z,16.60
2022-09-24T22:23:41.439Z,16.60
2022-09-24T22:26:09.731Z,16.60
2022-09-24T22:28:39.941Z,16.60
2022-09-24T22:31:14.406Z,16.50
2022-09-24T22:34:02.934Z,16.50
2022-09-24T22:36:32.238Z,16.40
2022-09-24T22:39:01.189Z,16.30
2022-09-24T22:41:30.702Z,16.30
2022-09-24T22:43:58.620Z,16.30
2022-09-24T22:46:27.526Z,16.20
2022-09-24T22:48:58.132Z,16.20
2022-09-24T22:51:28.490Z,16.20
2022-09-24T22:53:57.188Z,16.20
2022-09-24T22:56:25.409Z,16.20
2022-09-24T22:58:58.954Z,16.20
2022-09-24T23:01:31.601Z,16.20
2022-09-24T23:04:00.034Z,16.20
2022-09-24T23:06:28.113Z,16.10
2022-09-24T23:08:56.492Z,16.10
2022-09-24T23:11:25.573Z,16.10
2022-09-24T23:13:55.084Z,16.10
2022-09-24T23:16:24.091Z,16.10
2022-09-24T23:18:53.515Z,16.10
2022-09-24T23:21:21.972Z,16.10
2022-09-24T23:23:54.156Z,16.10
2022-09-24T23:26:22.356Z,16.10
2022-09-24T23:28:53.325Z,16.20
2022-09-24T23:31:23.013Z,16.20
2022-09-24T23:33:50.639Z,16.10
2022-09-24T23:36:18.454Z,16.10
2022-09-24T23:38:46.231Z,16.10
2022-09-24T23:41:14.153Z,16.10
2022-09-24T23:43:42.095Z,16.10
2022-09-24T23:46:10.226Z,16.10
2022-09-24T23:48:38.337Z,16.20
2022-09-24T23:51:06.590Z,16.10
2022-09-24T23:53:34.741Z,16.10
2022-09-24T23:56:02.911Z,16.10
2022-09-24T23:58:30.375Z,16.10
